Flight Track Log - Related Links

Times and Time Zones

All times are in EDT time to prevent confusion due to time zone crossing. See the JBU56 flight status page for this flight to view local times or setup timezone preferences in your user account.

Time Position Orientation Groundspeed Altitude Reporting Facility
EDT Latitude Longitude Course Direction KTS MPH feet Rate Location/Type
Sat 09:10:17 AM 38.9667 -77.5167 74° East 162 186 2,000  Level Potomac TRACON
Sat 09:11:17 AM 39.0000 -77.5667 311° West 201 231 4,100 2,150 Climbing Potomac TRACON
Sat 09:12:00 AM 39.0306 -76.9485 77° East  Level FlightAware Approximate
Sat 09:12:17 AM 39.0500 -77.5667 360° North 266 306 6,300  Level Potomac TRACON
Sat 09:13:00 AM 39.0527 -76.8174 78° East  Level FlightAware Approximate
Sat 09:13:17 AM 39.1167 -77.5000 38° Northeast 300 345 9,000  Level Potomac TRACON
Sat 09:14:00 AM 39.0667 -76.6849 90° East  Level FlightAware Approximate
Sat 09:14:11 AM 39.1500 -77.4000 67° East 331 381 10,000  Level Potomac TRACON
Sat 09:15:00 AM 39.0854 -76.5573 74° East  Level FlightAware Approximate
Sat 09:15:12 AM 39.1167 -77.2833 110° East 365 420 11,000  Level Potomac TRACON
Sat 09:17:02 AM 39.0839 -77.0436 100° East 377 434 15,200 2,259 Climbing Washington Center
Sat 09:18:02 AM 39.0961 -76.8967 84° East 390 449 17,400 2,218 Climbing Washington Center
Sat 09:19:01 AM 39.1078 -76.7497 84° East 403 464 19,600 2,017 Climbing Washington Center
Sat 09:20:01 AM 39.1217 -76.6003 83° East 415 478 21,400 1,600 Climbing Washington Center
Sat 09:21:01 AM 39.1333 -76.4425 85° East 427 491 22,800 793 Climbing Washington Center
Sat 09:22:02 AM 39.1447 -76.2819 85° East 439 505 23,000 101 Climbing Washington Center
Sat 09:23:00 AM 39.1622 -76.1403 81° East 439 505 23,000  Level Washington Center
Sat 09:24:00 AM 39.1794 -75.9853 82° East 439 505 23,000 250 Level Washington Center
Sat 09:25:00 AM 39.2236 -75.8408 68° East 444 511 23,500 793 Climbing Washington Center
Sat 09:26:01 AM 39.3114 -75.7258 45° Northeast 427 491 24,600 1,082 Climbing Washington Center
Sat 09:27:02 AM 39.3989 -75.6131 45° Northeast 438 504 25,700 984 Climbing Washington Center
Sat 09:28:03 AM 39.4906 -75.4975 44° Northeast 444 511 26,600 1,034 Climbing Washington Center
Sat 09:29:56 AM 39.6717 -75.2589 45° Northeast 464 534 28,700 1,228 Climbing New York Center
Sat 09:30:54 AM 39.7511 -75.1422 48° Northeast 464 534 30,100 1,160 Climbing New York Center
Sat 09:31:55 AM 39.8392 -75.0153 48° Northeast 464 534 31,000 446 Climbing New York Center
Sat 09:32:55 AM 39.9292 -74.8856 48° Northeast 476 548 31,000  Level New York Center
Sat 09:33:56 AM 40.0217 -74.7392 50° Northeast 482 555 31,000  Level New York Center
Sat 09:34:56 AM 40.1028 -74.6189 49° Northeast 490 564 31,000  Level New York Center
Sat 09:35:55 AM 40.1906 -74.4825 50° Northeast 490 564 31,000  Level New York Center
Sat 09:36:55 AM 40.2781 -74.3483 49° Northeast 490 564 31,000  Level New York Center
Sat 09:39:28 AM 40.5142 -73.9906 49° Northeast 487 560 31,000 -28 Level Boston Center
Sat 09:40:28 AM 40.6014 -73.8533 50° Northeast 487 560 30,900 -1,200 Descending Boston Center
Sat 09:41:28 AM 40.6883 -73.7156 50° Northeast 487 560 28,600 -2,300 Descending Boston Center
Sat 09:42:28 AM 40.7586 -73.5908 53° Northeast 487 560 26,300 -2,300 Descending Boston Center
Sat 09:43:28 AM 40.8411 -73.4633 49° Northeast 467 537 24,000 -1,150 Descending Boston Center
Sat 09:44:28 AM 40.9233 -73.3383 49° Northeast 456 525 24,000 -350 Level Boston Center
Sat 09:45:28 AM 41.0119 -73.2186 46° Northeast 451 519 23,300 -500 Descending Boston Center
Sat 09:46:28 AM 41.0917 -73.0956 49° Northeast 441 507 23,000 -150 Descending Boston Center
Sat 09:47:28 AM 41.1736 -72.9722 49° Northeast 441 507 23,000  Level Boston Center
Sat 09:48:28 AM 41.2450 -72.8403 54° Northeast 441 507 23,000  Level Boston Center
Sat 09:49:28 AM 41.3039 -72.6889 63° Northeast 441 507 23,000  Level Boston Center
Sat 09:50:28 AM 41.3564 -72.5369 65° Northeast 441 507 23,000  Level Boston Center
Sat 09:51:28 AM 41.4083 -72.3875 65° Northeast 441 507 23,000  Level Boston Center
Sat 09:52:28 AM 41.4625 -72.2433 63° Northeast 441 507 23,000  Level Boston Center
Sat 09:53:28 AM 41.5161 -72.0936 64° Northeast 441 507 23,000  Level Boston Center
Sat 09:54:28 AM 41.5678 -71.9461 65° Northeast 441 507 23,000 -600 Level Boston Center
Sat 09:55:28 AM 41.6089 -71.8239 66° East 441 507 21,800 -2,050 Descending Boston Center
Sat 09:56:28 AM 41.6744 -71.6369 65° Northeast 436 502 18,900 -2,550 Descending Boston Center
Sat 09:57:28 AM 41.7275 -71.4917 64° Northeast 436 502 16,700 -2,150 Descending Boston Center
Sat 09:58:28 AM 41.7700 -71.3683 65° Northeast 415 478 14,600 -2,200 Descending Boston Center
Sat 09:59:28 AM 41.8208 -71.2228 65° Northeast 397 457 12,300 -1,800 Descending Boston Center
Sat 10:00:28 AM 41.8631 -71.1047 64° Northeast 391 450 11,000 -624 Descending Boston Center
Sat 10:01:33 AM 41.9333 -70.9500 59° Northeast 385 443 11,000  Level KA90
Sat 10:02:27 AM 41.9833 -70.8333 60° Northeast 386 444 11,000 -368 Level KA90
Sat 10:03:27 AM 42.0333 -70.7333 56° Northeast 341 392 10,300 -1,238 Descending KA90
Sat 10:04:33 AM 42.1000 -70.6333 48° Northeast 335 386 8,400 -1,571 Descending KA90
Sat 10:05:33 AM 42.1833 -70.6000 17° North 309 356 7,000 -1,600 Descending KA90
Sat 10:06:33 AM 42.2667 -70.5833 North 289 333 5,200 -1,737 Descending KA90
Sat 10:07:27 AM 42.3167 -70.6167 334° Northwest 261 300 3,700 -1,158 Descending KA90
Sat 10:08:27 AM 42.3833 -70.6667 331° Northwest 244 281 3,000 -350 Descending KA90
Sat 10:09:27 AM 42.4000 -70.7500 285° West 205 236 3,000 -350 Level KA90
Sat 10:10:27 AM 42.3833 -70.8167 251° West 201 231 2,300 -800 Descending KA90
Sat 10:11:27 AM 42.3833 -70.8833 270° West 178 205 1,400 -810 Descending KA90
Sat 10:12:33 AM 42.3667 -70.9500 251° West 139 160 600 -727 Descending KA90

Login

Don't have an account? Register now (free) for customized features, flight alerts, and more!